sensor_id;sensor_type;location;lat;lon;timestamp;temperature;humidity
28725;DHT22;43472;48.980;9.646;2022-09-09T00:06:55;14.20;99.90
28725;DHT22;43472;48.980;9.646;2022-09-09T00:12:15;14.20;99.90
28725;DHT22;43472;48.980;9.646;2022-09-09T00:17:39;15.00;99.90
28725;DHT22;43472;48.980;9.646;2022-09-09T00:22:52;14.30;99.90
28725;DHT22;43472;48.980;9.646;2022-09-09T00:27:56;13.90;99.90
28725;DHT22;43472;48.980;9.646;2022-09-09T00:33:10;15.20;99.90
28725;DHT22;43472;48.980;9.646;2022-09-09T00:38:31;14.00;99.90
28725;DHT22;43472;48.980;9.646;2022-09-09T00:43:38;14.20;99.90
28725;DHT22;43472;48.980;9.646;2022-09-09T00:48:48;14.00;99.90
28725;DHT22;43472;48.980;9.646;2022-09-09T00:54:13;13.90;99.90
28725;DHT22;43472;48.980;9.646;2022-09-09T00:59:24;13.90;99.90
28725;DHT22;43472;48.980;9.646;2022-09-09T01:04:34;13.90;99.90
28725;DHT22;43472;48.980;9.646;2022-09-09T01:09:50;13.80;99.90
28725;DHT22;43472;48.980;9.646;2022-09-09T01:15:08;13.90;99.90
28725;DHT22;43472;48.980;9.646;2022-09-09T01:30:43;14.00;99.90
28725;DHT22;43472;48.980;9.646;2022-09-09T01:35:51;13.90;99.90
28725;DHT22;43472;48.980;9.646;2022-09-09T01:40:55;16.50;99.90
28725;DHT22;43472;48.980;9.646;2022-09-09T02:01:59;14.00;99.90
28725;DHT22;43472;48.980;9.646;2022-09-09T02:07:19;14.00;99.90
28725;DHT22;43472;48.980;9.646;2022-09-09T02:12:26;15.00;99.90
28725;DHT22;43472;48.980;9.646;2022-09-09T02:17:31;14.30;99.90
28725;DHT22;43472;48.980;9.646;2022-09-09T02:22:36;14.40;99.90
28725;DHT22;43472;48.980;9.646;2022-09-09T02:27:41;14.20;99.90
28725;DHT22;43472;48.980;9.646;2022-09-09T02:32:44;16.40;99.90
28725;DHT22;43472;48.980;9.646;2022-09-09T02:37:48;14.00;99.90
28725;DHT22;43472;48.980;9.646;2022-09-09T02:42:54;13.90;99.90
28725;DHT22;43472;48.980;9.646;2022-09-09T02:48:15;14.90;99.90
28725;DHT22;43472;48.980;9.646;2022-09-09T02:53:50;13.70;99.90
28725;DHT22;43472;48.980;9.646;2022-09-09T02:58:56;13.70;99.90
28725;DHT22;43472;48.980;9.646;2022-09-09T03:03:58;15.30;99.90
28725;DHT22;43472;48.980;9.646;2022-09-09T03:09:00;13.40;99.90
28725;DHT22;43472;48.980;9.646;2022-09-09T03:14:03;13.50;99.90
28725;DHT22;43472;48.980;9.646;2022-09-09T03:19:05;15.60;99.90
28725;DHT22;43472;48.980;9.646;2022-09-09T03:24:07;14.20;99.90
28725;DHT22;43472;48.980;9.646;2022-09-09T03:29:09;14.50;99.90
28725;DHT22;43472;48.980;9.646;2022-09-09T03:34:11;13.30;99.90
28725;DHT22;43472;48.980;9.646;2022-09-09T03:39:12;15.20;99.90
28725;DHT22;43472;48.980;9.646;2022-09-09T03:44:15;13.20;99.90
28725;DHT22;43472;48.980;9.646;2022-09-09T03:49:17;13.20;99.90
28725;DHT22;43472;48.980;9.646;2022-09-09T03:54:19;13.60;99.90
28725;DHT22;43472;48.980;9.646;2022-09-09T03:59:21;13.00;99.90
28725;DHT22;43472;48.980;9.646;2022-09-09T04:14:27;13.10;99.90
28725;DHT22;43472;48.980;9.646;2022-09-09T04:19:30;13.30;99.90
28725;DHT22;43472;48.980;9.646;2022-09-09T04:24:32;13.60;99.90
28725;DHT22;43472;48.980;9.646;2022-09-09T04:34:36;13.00;99.90
28725;DHT22;43472;48.980;9.646;2022-09-09T04:44:40;13.20;99.90
28725;DHT22;43472;48.980;9.646;2022-09-09T04:49:42;13.00;99.90
28725;DHT22;43472;48.980;9.646;2022-09-09T04:54:44;12.70;99.90
28725;DHT22;43472;48.980;9.646;2022-09-09T04:59:46;12.80;99.90
28725;DHT22;43472;48.980;9.646;2022-09-09T05:04:48;13.20;99.90
28725;DHT22;43472;48.980;9.646;2022-09-09T05:09:51;13.30;99.90
28725;DHT22;43472;48.980;9.646;2022-09-09T05:14:52;13.00;99.90
28725;DHT22;43472;48.980;9.646;2022-09-09T05:19:54;13.30;99.90
28725;DHT22;43472;48.980;9.646;2022-09-09T05:25:14;13.30;99.90
28725;DHT22;43472;48.980;9.646;2022-09-09T05:45:25;13.50;99.90
28725;DHT22;43472;48.980;9.646;2022-09-09T05:50:26;13.90;99.90
28725;DHT22;43472;48.980;9.646;2022-09-09T05:55:32;16.50;99.90
28725;DHT22;43472;48.980;9.646;2022-09-09T06:05:36;13.80;99.90
28725;DHT22;43472;48.980;9.646;2022-09-09T06:15:51;14.40;99.90
28725;DHT22;43472;48.980;9.646;2022-09-09T06:21:04;16.40;99.90
28725;DHT22;43472;48.980;9.646;2022-09-09T06:26:15;14.50;99.90
28725;DHT22;43472;48.980;9.646;2022-09-09T06:31:23;15.00;99.90
28725;DHT22;43472;48.980;9.646;2022-09-09T06:36:36;15.00;99.90
28725;DHT22;43472;48.980;9.646;2022-09-09T06:42:07;14.90;99.90
28725;DHT22;43472;48.980;9.646;2022-09-09T06:47:12;15.30;99.90
28725;DHT22;43472;48.980;9.646;2022-09-09T06:52:14;15.60;99.90
28725;DHT22;43472;48.980;9.646;2022-09-09T06:57:16;16.00;99.90
28725;DHT22;43472;48.980;9.646;2022-09-09T07:07:41;16.60;99.90
28725;DHT22;43472;48.980;9.646;2022-09-09T07:12:43;16.70;99.90
28725;DHT22;43472;48.980;9.646;2022-09-09T07:17:45;17.10;99.90
28725;DHT22;43472;48.980;9.646;2022-09-09T07:22:47;17.60;99.90
28725;DHT22;43472;48.980;9.646;2022-09-09T07:27:49;15.80;99.90
28725;DHT22;43472;48.980;9.646;2022-09-09T07:32:52;17.40;99.90
28725;DHT22;43472;48.980;9.646;2022-09-09T07:37:54;17.60;99.90
28725;DHT22;43472;48.980;9.646;2022-09-09T07:42:56;17.60;99.90
28725;DHT22;43472;48.980;9.646;2022-09-09T07:47:58;17.80;99.90
28725;DHT22;43472;48.980;9.646;2022-09-09T07:53:00;17.90;99.90
28725;DHT22;43472;48.980;9.646;2022-09-09T07:58:04;18.00;99.90
28725;DHT22;43472;48.980;9.646;2022-09-09T08:08:08;18.00;99.90
28725;DHT22;43472;48.980;9.646;2022-09-09T08:13:10;18.20;99.90
28725;DHT22;43472;48.980;9.646;2022-09-09T08:18:19;18.20;99.90
28725;DHT22;43472;48.980;9.646;2022-09-09T08:23:20;20.10;99.90
28725;DHT22;43472;48.980;9.646;2022-09-09T08:28:23;18.60;99.90
28725;DHT22;43472;48.980;9.646;2022-09-09T08:33:24;18.90;99.90
28725;DHT22;43472;48.980;9.646;2022-09-09T08:38:27;18.90;99.90
28725;DHT22;43472;48.980;9.646;2022-09-09T08:43:31;20.50;99.90
28725;DHT22;43472;48.980;9.646;2022-09-09T08:48:40;19.20;99.90
28725;DHT22;43472;48.980;9.646;2022-09-09T08:53:49;19.40;99.90
28725;DHT22;43472;48.980;9.646;2022-09-09T08:58:53;19.70;99.90
28725;DHT22;43472;48.980;9.646;2022-09-09T09:09:57;19.90;99.90
28725;DHT22;43472;48.980;9.646;2022-09-09T09:15:14;20.60;99.90
28725;DHT22;43472;48.980;9.646;2022-09-09T09:20:24;20.00;99.90
28725;DHT22;43472;48.980;9.646;2022-09-09T09:25:35;19.90;99.90
28725;DHT22;43472;48.980;9.646;2022-09-09T09:30:41;19.50;99.90
28725;DHT22;43472;48.980;9.646;2022-09-09T09:35:44;19.50;99.90
28725;DHT22;43472;48.980;9.646;2022-09-09T09:40:56;19.60;99.90
28725;DHT22;43472;48.980;9.646;2022-09-09T09:45:59;21.10;99.90
28725;DHT22;43472;48.980;9.646;2022-09-09T09:51:18;19.80;99.90
28725;DHT22;43472;48.980;9.646;2022-09-09T09:56:30;20.80;99.90
28725;DHT22;43472;48.980;9.646;2022-09-09T10:01:33;21.30;99.90
28725;DHT22;43472;48.980;9.646;2022-09-09T10:06:36;21.30;99.90
28725;DHT22;43472;48.980;9.646;2022-09-09T10:12:04;21.20;99.90
28725;DHT22;43472;48.980;9.646;2022-09-09T10:17:14;20.50;99.90
28725;DHT22;43472;48.980;9.646;2022-09-09T10:28:07;19.90;99.90
28725;DHT22;43472;48.980;9.646;2022-09-09T10:33:13;19.70;99.90
28725;DHT22;43472;48.980;9.646;2022-09-09T11:00:06;22.20;99.90
28725;DHT22;43472;48.980;9.646;2022-09-09T11:05:16;22.60;99.90
28725;DHT22;43472;48.980;9.646;2022-09-09T11:10:53;21.80;99.90
28725;DHT22;43472;48.980;9.646;2022-09-09T11:16:25;22.30;99.90
28725;DHT22;43472;48.980;9.646;2022-09-09T11:21:35;21.40;99.70
28725;DHT22;43472;48.980;9.646;2022-09-09T11:26:51;21.90;99.40
28725;DHT22;43472;48.980;9.646;2022-09-09T11:43:12;21.00;99.90
28725;DHT22;43472;48.980;9.646;2022-09-09T11:48:30;21.00;99.90
28725;DHT22;43472;48.980;9.646;2022-09-09T11:53:35;21.20;99.90
28725;DHT22;43472;48.980;9.646;2022-09-09T11:58:40;21.20;99.90
28725;DHT22;43472;48.980;9.646;2022-09-09T12:03:51;20.60;99.90
28725;DHT22;43472;48.980;9.646;2022-09-09T12:20:16;19.20;99.90
28725;DHT22;43472;48.980;9.646;2022-09-09T12:25:26;18.80;99.90
28725;DHT22;43472;48.980;9.646;2022-09-09T12:36:00;17.70;99.90
28725;DHT22;43472;48.980;9.646;2022-09-09T12:41:03;17.90;99.90
28725;DHT22;43472;48.980;9.646;2022-09-09T12:46:23;18.60;99.90
28725;DHT22;43472;48.980;9.646;2022-09-09T12:51:30;20.50;99.90
28725;DHT22;43472;48.980;9.646;2022-09-09T12:56:33;21.10;99.90
28725;DHT22;43472;48.980;9.646;2022-09-09T13:01:37;22.40;99.90
28725;DHT22;43472;48.980;9.646;2022-09-09T13:06:39;22.70;99.90
28725;DHT22;43472;48.980;9.646;2022-09-09T13:11:43;23.50;99.90
28725;DHT22;43472;48.980;9.646;2022-09-09T13:16:57;24.30;99.90
28725;DHT22;43472;48.980;9.646;2022-09-09T13:22:00;23.00;99.90
28725;DHT22;43472;48.980;9.646;2022-09-09T13:27:32;22.30;99.90
28725;DHT22;43472;48.980;9.646;2022-09-09T13:32:35;22.10;99.90
28725;DHT22;43472;48.980;9.646;2022-09-09T13:37:38;21.50;99.90
28725;DHT22;43472;48.980;9.646;2022-09-09T13:42:50;21.70;99.90
28725;DHT22;43472;48.980;9.646;2022-09-09T13:47:56;22.00;99.90
28725;DHT22;43472;48.980;9.646;2022-09-09T13:52:59;22.20;99.90
28725;DHT22;43472;48.980;9.646;2022-09-09T13:58:02;21.30;99.90
28725;DHT22;43472;48.980;9.646;2022-09-09T14:03:05;20.90;99.90
28725;DHT22;43472;48.980;9.646;2022-09-09T14:08:07;20.90;99.90
28725;DHT22;43472;48.980;9.646;2022-09-09T14:13:12;20.90;99.90
28725;DHT22;43472;48.980;9.646;2022-09-09T14:18:14;21.10;99.90
28725;DHT22;43472;48.980;9.646;2022-09-09T14:23:16;23.70;99.90
28725;DHT22;43472;48.980;9.646;2022-09-09T14:28:18;23.10;99.90
28725;DHT22;43472;48.980;9.646;2022-09-09T14:33:40;25.20;98.20
28725;DHT22;43472;48.980;9.646;2022-09-09T14:38:42;22.80;99.10
28725;DHT22;43472;48.980;9.646;2022-09-09T14:43:45;22.20;99.90
28725;DHT22;43472;48.980;9.646;2022-09-09T14:48:47;21.90;99.90
28725;DHT22;43472;48.980;9.646;2022-09-09T14:53:58;22.10;99.90
28725;DHT22;43472;48.980;9.646;2022-09-09T14:59:01;22.80;99.90
28725;DHT22;43472;48.980;9.646;2022-09-09T15:04:04;24.10;99.90
28725;DHT22;43472;48.980;9.646;2022-09-09T15:09:06;22.90;99.90
28725;DHT22;43472;48.980;9.646;2022-09-09T15:14:09;22.40;99.90
28725;DHT22;43472;48.980;9.646;2022-09-09T15:19:10;23.50;99.90
28725;DHT22;43472;48.980;9.646;2022-09-09T15:24:12;22.10;99.90
28725;DHT22;43472;48.980;9.646;2022-09-09T15:29:15;22.30;99.90
28725;DHT22;43472;48.980;9.646;2022-09-09T15:34:17;22.10;99.90
28725;DHT22;43472;48.980;9.646;2022-09-09T15:39:19;21.70;99.90
28725;DHT22;43472;48.980;9.646;2022-09-09T15:44:21;21.30;99.90
28725;DHT22;43472;48.980;9.646;2022-09-09T15:49:26;21.70;99.90
28725;DHT22;43472;48.980;9.646;2022-09-09T15:54:31;21.40;99.90
28725;DHT22;43472;48.980;9.646;2022-09-09T15:59:34;21.40;99.90
28725;DHT22;43472;48.980;9.646;2022-09-09T16:04:36;20.80;99.90
28725;DHT22;43472;48.980;9.646;2022-09-09T16:09:38;20.70;99.90
28725;DHT22;43472;48.980;9.646;2022-09-09T16:14:39;20.80;99.90
28725;DHT22;43472;48.980;9.646;2022-09-09T16:19:42;20.40;99.90
28725;DHT22;43472;48.980;9.646;2022-09-09T16:24:43;20.20;99.90
28725;DHT22;43472;48.980;9.646;2022-09-09T16:29:46;20.00;99.90
28725;DHT22;43472;48.980;9.646;2022-09-09T16:34:48;20.60;99.90
28725;DHT22;43472;48.980;9.646;2022-09-09T16:39:50;19.80;99.90
28725;DHT22;43472;48.980;9.646;2022-09-09T16:44:52;19.70;99.90
28725;DHT22;43472;48.980;9.646;2022-09-09T16:49:54;19.70;99.90
28725;DHT22;43472;48.980;9.646;2022-09-09T16:54:56;20.20;99.90
28725;DHT22;43472;48.980;9.646;2022-09-09T16:59:57;19.30;99.90
28725;DHT22;43472;48.980;9.646;2022-09-09T17:05:00;18.60;99.90
28725;DHT22;43472;48.980;9.646;2022-09-09T17:10:02;19.80;99.90
28725;DHT22;43472;48.980;9.646;2022-09-09T17:15:05;18.20;99.90
28725;DHT22;43472;48.980;9.646;2022-09-09T17:20:07;18.10;99.90
28725;DHT22;43472;48.980;9.646;2022-09-09T17:25:10;17.90;99.90
28725;DHT22;43472;48.980;9.646;2022-09-09T17:30:12;17.80;99.90
28725;DHT22;43472;48.980;9.646;2022-09-09T17:35:14;17.80;99.90
28725;DHT22;43472;48.980;9.646;2022-09-09T17:40:16;17.80;99.90
28725;DHT22;43472;48.980;9.646;2022-09-09T17:45:18;17.50;99.90
28725;DHT22;43472;48.980;9.646;2022-09-09T17:50:21;17.50;99.90
28725;DHT22;43472;48.980;9.646;2022-09-09T17:55:23;17.20;99.90
28725;DHT22;43472;48.980;9.646;2022-09-09T18:05:27;17.00;99.90
28725;DHT22;43472;48.980;9.646;2022-09-09T18:10:30;18.30;99.90
28725;DHT22;43472;48.980;9.646;2022-09-09T18:15:36;16.80;99.90
28725;DHT22;43472;48.980;9.646;2022-09-09T18:21:01;16.70;99.90
28725;DHT22;43472;48.980;9.646;2022-09-09T18:26:12;16.00;99.90
28725;DHT22;43472;48.980;9.646;2022-09-09T18:31:15;15.90;99.90
28725;DHT22;43472;48.980;9.646;2022-09-09T18:36:23;15.60;99.90
28725;DHT22;43472;48.980;9.646;2022-09-09T18:46:30;15.90;99.90
28725;DHT22;43472;48.980;9.646;2022-09-09T18:56:37;15.80;99.90
28725;DHT22;43472;48.980;9.646;2022-09-09T19:01:40;15.70;99.90
28725;DHT22;43472;48.980;9.646;2022-09-09T19:06:44;15.20;99.90
28725;DHT22;43472;48.980;9.646;2022-09-09T19:11:47;15.50;99.90
28725;DHT22;43472;48.980;9.646;2022-09-09T19:16:48;15.40;99.90
28725;DHT22;43472;48.980;9.646;2022-09-09T19:21:51;15.00;99.90
28725;DHT22;43472;48.980;9.646;2022-09-09T19:26:56;14.80;99.90
28725;DHT22;43472;48.980;9.646;2022-09-09T19:31:59;14.70;99.90
28725;DHT22;43472;48.980;9.646;2022-09-09T19:37:23;14.60;99.90
28725;DHT22;43472;48.980;9.646;2022-09-09T19:42:24;16.00;99.90
28725;DHT22;43472;48.980;9.646;2022-09-09T19:47:26;15.10;99.90
28725;DHT22;43472;48.980;9.646;2022-09-09T19:52:28;15.00;99.90
28725;DHT22;43472;48.980;9.646;2022-09-09T20:12:36;14.50;99.90
28725;DHT22;43472;48.980;9.646;2022-09-09T20:17:38;14.40;99.90
28725;DHT22;43472;48.980;9.646;2022-09-09T20:22:39;14.60;99.90
28725;DHT22;43472;48.980;9.646;2022-09-09T20:27:41;15.20;99.90
28725;DHT22;43472;48.980;9.646;2022-09-09T20:32:43;14.50;99.90
28725;DHT22;43472;48.980;9.646;2022-09-09T20:37:44;15.00;99.90
28725;DHT22;43472;48.980;9.646;2022-09-09T20:52:51;14.50;99.90
28725;DHT22;43472;48.980;9.646;2022-09-09T20:57:53;14.40;99.90
28725;DHT22;43472;48.980;9.646;2022-09-09T21:02:55;14.70;99.90
28725;DHT22;43472;48.980;9.646;2022-09-09T21:07:56;14.90;99.90
28725;DHT22;43472;48.980;9.646;2022-09-09T21:12:59;15.70;99.90
28725;DHT22;43472;48.980;9.646;2022-09-09T21:18:02;14.90;99.90
28725;DHT22;43472;48.980;9.646;2022-09-09T21:23:04;14.40;99.90
28725;DHT22;43472;48.980;9.646;2022-09-09T21:28:08;17.20;99.90
28725;DHT22;43472;48.980;9.646;2022-09-09T21:33:10;17.30;99.90
28725;DHT22;43472;48.980;9.646;2022-09-09T21:38:18;14.10;99.90
28725;DHT22;43472;48.980;9.646;2022-09-09T21:43:21;14.00;99.90
28725;DHT22;43472;48.980;9.646;2022-09-09T21:58:31;14.10;99.90
28725;DHT22;43472;48.980;9.646;2022-09-09T22:03:38;14.10;99.90
28725;DHT22;43472;48.980;9.646;2022-09-09T22:08:40;16.30;99.90
28725;DHT22;43472;48.980;9.646;2022-09-09T22:13:43;13.60;99.90
28725;DHT22;43472;48.980;9.646;2022-09-09T22:18:54;15.00;99.90
28725;DHT22;43472;48.980;9.646;2022-09-09T22:24:02;13.90;99.90
28725;DHT22;43472;48.980;9.646;2022-09-09T22:29:05;13.80;99.90
28725;DHT22;43472;48.980;9.646;2022-09-09T22:34:07;13.80;99.90
28725;DHT22;43472;48.980;9.646;2022-09-09T22:39:08;13.70;99.90
28725;DHT22;43472;48.980;9.646;2022-09-09T22:44:10;13.30;99.90
28725;DHT22;43472;48.980;9.646;2022-09-09T22:49:12;13.70;99.90
28725;DHT22;43472;48.980;9.646;2022-09-09T22:59:21;13.80;99.90
28725;DHT22;43472;48.980;9.646;2022-09-09T23:04:24;13.80;99.90
28725;DHT22;43472;48.980;9.646;2022-09-09T23:14:28;13.70;99.90
28725;DHT22;43472;48.980;9.646;2022-09-09T23:19:31;13.80;99.90
28725;DHT22;43472;48.980;9.646;2022-09-09T23:24:33;13.80;99.90
28725;DHT22;43472;48.980;9.646;2022-09-09T23:29:35;16.40;99.90
28725;DHT22;43472;48.980;9.646;2022-09-09T23:49:47;13.70;99.90
28725;DHT22;43472;48.980;9.646;2022-09-09T23:54:51;13.50;99.90
28725;DHT22;43472;48.980;9.646;2022-09-09T23:59:52;13.60;99.90
